createdAt,value
2023-02-14T00:01:48.504Z,10.02
2023-02-14T00:05:53.501Z,6.57
2023-02-14T00:09:58.257Z,6.78
2023-02-14T00:14:18.835Z,6.22
2023-02-14T00:18:44.732Z,6.13
2023-02-14T00:22:47.854Z,7.57
2023-02-14T00:26:53.260Z,7.53
2023-02-14T00:30:59.204Z,6.95
2023-02-14T00:35:05.743Z,6.28
2023-02-14T00:39:11.491Z,7.05
2023-02-14T00:43:23.379Z,7.20
2023-02-14T00:47:26.493Z,7.25
2023-02-14T00:51:29.855Z,5.75
2023-02-14T00:55:34.598Z,6.32
2023-02-14T00:59:39.193Z,5.90
2023-02-14T01:03:43.016Z,6.57
2023-02-14T01:07:46.133Z,5.30
2023-02-14T01:11:49.935Z,6.97
2023-02-14T01:15:55.025Z,7.30
2023-02-14T01:19:58.165Z,7.63
2023-02-14T01:24:03.233Z,6.20
2023-02-14T01:28:06.339Z,6.70
2023-02-14T01:32:10.805Z,7.80
2023-02-14T01:36:20.091Z,6.30
2023-02-14T01:40:23.188Z,7.63
2023-02-14T01:44:59.583Z,8.13
2023-02-14T01:49:07.441Z,7.45
2023-02-14T01:53:13.826Z,7.43
2023-02-14T01:57:20.959Z,5.68
2023-02-14T02:01:25.439Z,7.18
2023-02-14T02:05:32.662Z,7.82
2023-02-14T02:09:38.409Z,8.63
2023-02-14T02:13:41.366Z,7.75
2023-02-14T02:17:53.342Z,7.45
2023-02-14T02:22:26.272Z,8.70
2023-02-14T02:26:55.756Z,7.45
2023-02-14T02:31:22.523Z,8.18
2023-02-14T02:35:51.719Z,6.25
2023-02-14T02:40:09.044Z,10.00
2023-02-14T02:44:21.313Z,8.40
2023-02-14T02:48:27.864Z,9.85
2023-02-14T02:52:58.736Z,7.75
2023-02-14T02:57:07.184Z,9.40
2023-02-14T03:01:13.677Z,7.32
2023-02-14T03:05:18.151Z,8.40
2023-02-14T03:09:57.762Z,10.10
2023-02-14T03:14:14.300Z,8.55
2023-02-14T03:18:40.002Z,9.20
2023-02-14T03:22:50.470Z,9.25
2023-02-14T03:27:01.537Z,6.93
2023-02-14T03:31:10.008Z,8.10
2023-02-14T03:35:19.079Z,10.50
2023-02-14T03:39:29.675Z,10.43
2023-02-14T03:43:38.285Z,9.48
2023-02-14T03:47:43.805Z,9.60
2023-02-14T03:51:55.241Z,9.32
2023-02-14T03:56:04.916Z,9.73
2023-02-14T04:00:11.107Z,12.52
2023-02-14T04:04:16.211Z,7.32
2023-02-14T04:08:26.776Z,7.28
2023-02-14T04:12:37.756Z,9.77
2023-02-14T04:16:56.507Z,9.65
2023-02-14T04:20:59.313Z,5.55
2023-02-14T04:25:02.721Z,8.43
2023-02-14T04:29:06.352Z,10.10
2023-02-14T04:33:11.012Z,9.52
2023-02-14T04:37:15.360Z,9.38
2023-02-14T04:41:18.576Z,10.05
2023-02-14T04:45:21.658Z,11.55
2023-02-14T04:49:26.227Z,8.80
2023-02-14T04:53:31.918Z,10.55
2023-02-14T04:57:35.085Z,8.20
2023-02-14T05:01:39.066Z,10.80
2023-02-14T05:05:44.864Z,13.05
2023-02-14T05:09:49.907Z,10.20
2023-02-14T05:13:54.770Z,9.75
2023-02-14T05:18:01.857Z,8.98
2023-02-14T05:22:06.662Z,10.90
2023-02-14T05:26:09.579Z,12.70
2023-02-14T05:30:14.832Z,10.98
2023-02-14T05:34:18.898Z,10.32
2023-02-14T05:38:23.145Z,9.93
2023-02-14T05:42:27.757Z,10.13
2023-02-14T05:46:30.831Z,10.65
2023-02-14T05:50:34.040Z,11.90
2023-02-14T05:54:38.303Z,10.57
2023-02-14T05:58:41.379Z,10.55
2023-02-14T06:02:44.544Z,10.90
2023-02-14T06:06:47.994Z,10.07
2023-02-14T06:10:52.497Z,10.85
2023-02-14T06:14:55.809Z,8.73
2023-02-14T06:18:58.922Z,10.15
2023-02-14T06:23:03.008Z,9.88
2023-02-14T06:27:07.344Z,10.48
2023-02-14T06:31:16.220Z,11.27
2023-02-14T06:35:19.491Z,10.23
2023-02-14T06:39:23.909Z,8.32
2023-02-14T06:43:28.529Z,10.48
2023-02-14T06:47:33.296Z,8.93
2023-02-14T06:51:37.700Z,9.75
2023-02-14T06:55:43.538Z,5.35
2023-02-14T06:59:48.683Z,9.82
2023-02-14T07:03:51.423Z,6.70
2023-02-14T07:07:55.886Z,11.98
2023-02-14T07:11:58.399Z,4.30
2023-02-14T07:16:03.026Z,8.82
2023-02-14T07:20:07.620Z,9.82
2023-02-14T07:24:13.890Z,12.73
2023-02-14T07:28:17.096Z,11.15
2023-02-14T07:32:21.759Z,8.50
2023-02-14T07:36:24.803Z,12.50
2023-02-14T07:40:33.572Z,11.68
2023-02-14T07:45:06.875Z,13.05
2023-02-14T07:49:09.507Z,11.57
2023-02-14T07:53:17.215Z,12.52
2023-02-14T07:57:20.399Z,11.88
2023-02-14T08:01:23.423Z,11.63
2023-02-14T08:05:29.659Z,11.07
2023-02-14T08:09:33.272Z,12.45
2023-02-14T08:13:36.913Z,8.60
2023-02-14T08:17:40.049Z,11.20
2023-02-14T08:21:44.310Z,9.93
2023-02-14T08:25:47.232Z,10.25
2023-02-14T08:29:50.533Z,10.48
2023-02-14T08:33:53.700Z,12.32
2023-02-14T08:37:58.394Z,12.45
2023-02-14T08:42:03.649Z,9.35
2023-02-14T08:46:07.028Z,10.80
2023-02-14T08:50:15.280Z,10.57
2023-02-14T08:54:20.049Z,11.93
2023-02-14T08:58:23.167Z,10.05
2023-02-14T09:02:27.755Z,12.88
2023-02-14T09:06:31.652Z,11.25
2023-02-14T09:10:39.448Z,12.43
2023-02-14T09:14:45.623Z,10.60
2023-02-14T09:18:49.698Z,12.48
2023-02-14T09:22:52.948Z,11.68
2023-02-14T09:26:58.357Z,9.80
2023-02-14T09:31:11.224Z,9.25
2023-02-14T09:35:31.417Z,12.00
2023-02-14T09:39:38.164Z,13.27
2023-02-14T09:43:50.997Z,13.18
2023-02-14T09:47:58.956Z,11.35
2023-02-14T09:52:07.499Z,8.93
2023-02-14T09:56:17.677Z,11.35
2023-02-14T10:00:30.811Z,10.02
2023-02-14T10:04:40.312Z,9.88
2023-02-14T10:08:57.121Z,12.40
2023-02-14T10:13:07.769Z,11.27
2023-02-14T10:17:19.866Z,6.60
2023-02-14T10:21:26.928Z,8.07
2023-02-14T10:25:35.759Z,11.20
2023-02-14T10:29:42.292Z,11.30
2023-02-14T10:33:57.705Z,14.23
2023-02-14T10:42:20.782Z,11.07
2023-02-14T10:46:36.220Z,13.15
2023-02-14T10:50:48.890Z,17.48
2023-02-14T10:54:56.945Z,9.13
2023-02-14T10:59:04.014Z,11.68
2023-02-14T11:03:11.163Z,11.55
2023-02-14T11:07:16.858Z,12.35
2023-02-14T11:11:29.979Z,12.82
2023-02-14T11:15:37.187Z,7.57
2023-02-14T11:19:40.247Z,9.82
2023-02-14T11:23:46.789Z,13.32
2023-02-14T11:27:57.416Z,12.00
2023-02-14T11:32:09.917Z,12.13
2023-02-14T11:36:16.975Z,10.45
2023-02-14T11:40:33.988Z,12.13
2023-02-14T11:44:44.148Z,12.48
2023-02-14T11:53:00.397Z,13.43
2023-02-14T11:57:08.906Z,10.75
2023-02-14T12:01:21.682Z,14.02
2023-02-14T12:05:29.548Z,12.02
2023-02-14T12:09:34.407Z,12.85
2023-02-14T12:13:40.962Z,11.60
2023-02-14T12:17:50.432Z,11.25
2023-02-14T12:21:58.406Z,10.38
2023-02-14T12:26:06.105Z,12.85
2023-02-14T12:30:17.988Z,11.30
2023-02-14T12:34:21.641Z,13.40
2023-02-14T12:42:49.522Z,13.02
2023-02-14T12:47:16.334Z,13.73
2023-02-14T12:51:27.445Z,12.18
2023-02-14T12:55:42.946Z,13.38
2023-02-14T13:00:00.283Z,11.15
2023-02-14T13:04:27.019Z,12.70
2023-02-14T13:08:48.240Z,9.75
2023-02-14T13:13:01.044Z,12.32
2023-02-14T13:17:14.358Z,8.77
2023-02-14T13:21:23.833Z,12.93
2023-02-14T13:25:32.090Z,8.57
2023-02-14T13:29:46.573Z,9.38
2023-02-14T13:33:53.802Z,10.90
2023-02-14T13:38:02.199Z,13.57
2023-02-14T13:42:06.321Z,12.00
2023-02-14T13:46:09.615Z,14.20
2023-02-14T13:50:22.371Z,11.15
2023-02-14T13:54:37.889Z,11.90
2023-02-14T13:58:49.073Z,11.52
2023-02-14T14:02:53.688Z,13.32
2023-02-14T14:07:27.293Z,13.95
2023-02-14T14:11:52.928Z,8.15
2023-02-14T14:16:28.007Z,11.23
2023-02-14T14:20:43.620Z,11.82
2023-02-14T14:24:59.888Z,14.02
2023-02-14T14:29:11.738Z,10.48
2023-02-14T14:33:15.951Z,14.13
2023-02-14T14:37:23.767Z,11.32
2023-02-14T14:41:33.286Z,9.77
2023-02-14T14:45:41.940Z,13.20
2023-02-14T14:49:45.103Z,11.77
2023-02-14T14:53:52.132Z,13.13
2023-02-14T14:57:58.861Z,10.98
2023-02-14T15:02:03.918Z,12.90
2023-02-14T15:06:11.439Z,13.40
2023-02-14T15:10:27.402Z,9.15
2023-02-14T15:14:37.184Z,13.15
2023-02-14T15:18:41.746Z,10.85
2023-02-14T15:22:47.713Z,11.70
2023-02-14T15:26:53.353Z,9.63
2023-02-14T15:31:03.466Z,11.80
2023-02-14T15:35:18.978Z,12.93
2023-02-14T15:39:27.597Z,13.75
2023-02-14T15:43:36.851Z,11.95
2023-02-14T15:47:41.851Z,12.35
2023-02-14T15:51:46.306Z,12.50
2023-02-14T15:55:51.185Z,14.32
2023-02-14T15:59:55.304Z,12.32
2023-02-14T16:04:01.861Z,16.45
2023-02-14T16:08:09.553Z,15.40
2023-02-14T16:12:34.042Z,14.57
2023-02-14T16:16:58.482Z,13.02
2023-02-14T16:21:15.763Z,14.55
2023-02-14T16:25:23.319Z,14.02
2023-02-14T16:29:26.409Z,17.25
2023-02-14T16:33:31.590Z,15.60
2023-02-14T16:37:36.385Z,14.23
2023-02-14T16:45:48.087Z,12.25
2023-02-14T16:49:53.231Z,14.90
2023-02-14T16:54:01.156Z,13.90
2023-02-14T16:58:05.527Z,16.80
2023-02-14T17:02:10.486Z,12.18
2023-02-14T17:06:22.057Z,16.70
2023-02-14T17:10:25.278Z,17.42
2023-02-14T17:14:34.907Z,16.55
2023-02-14T17:22:42.781Z,12.68
2023-02-14T17:26:48.901Z,15.63
2023-02-14T17:30:54.850Z,16.13
2023-02-14T17:34:58.021Z,16.27
2023-02-14T17:39:01.098Z,15.30
2023-02-14T17:43:08.552Z,12.93
2023-02-14T17:47:14.949Z,14.32
2023-02-14T17:51:20.567Z,16.17
2023-02-14T17:55:24.023Z,15.07
2023-02-14T17:59:30.045Z,15.57
2023-02-14T18:03:38.048Z,14.65
2023-02-14T18:07:43.563Z,16.67
2023-02-14T18:11:50.896Z,16.17
2023-02-14T18:16:00.185Z,15.07
2023-02-14T18:20:06.053Z,15.23
2023-02-14T18:24:10.042Z,16.70
2023-02-14T18:28:13.171Z,16.55
2023-02-14T18:32:20.507Z,16.73
2023-02-14T18:36:25.584Z,16.52
2023-02-14T18:40:29.993Z,17.05
2023-02-14T18:44:33.758Z,15.95
2023-02-14T18:48:38.588Z,14.07
2023-02-14T18:52:45.939Z,15.40
2023-02-14T18:56:48.806Z,15.45
2023-02-14T19:00:52.111Z,17.55
2023-02-14T19:04:55.119Z,16.30
2023-02-14T19:08:59.965Z,16.30
2023-02-14T19:13:05.855Z,15.00
2023-02-14T19:17:09.328Z,16.85
2023-02-14T19:21:14.657Z,18.08
2023-02-14T19:25:19.407Z,10.73
2023-02-14T19:29:23.368Z,16.45
2023-02-14T19:33:26.721Z,18.88
2023-02-14T19:37:30.113Z,16.42
2023-02-14T19:41:35.870Z,25.73
2023-02-14T19:45:40.222Z,15.05
2023-02-14T19:49:46.549Z,17.40
2023-02-14T19:53:50.036Z,14.95
2023-02-14T19:57:54.515Z,17.13
2023-02-14T20:01:58.572Z,14.35
2023-02-14T20:06:03.611Z,15.80
2023-02-14T20:10:07.701Z,15.95
2023-02-14T20:14:18.362Z,17.05
2023-02-14T20:18:24.702Z,23.38
2023-02-14T20:22:28.378Z,16.75
2023-02-14T20:30:40.138Z,24.63
2023-02-14T20:34:46.180Z,15.32
2023-02-14T20:38:49.172Z,17.75
2023-02-14T20:42:52.319Z,18.27
2023-02-14T20:51:09.669Z,15.00
2023-02-14T20:55:12.852Z,17.92
2023-02-14T20:59:17.373Z,18.67
2023-02-14T21:03:23.773Z,18.40
2023-02-14T21:07:31.027Z,21.05
2023-02-14T21:11:34.552Z,18.20
2023-02-14T21:15:44.881Z,16.25
2023-02-14T21:19:55.373Z,17.10
2023-02-14T21:23:58.506Z,19.25
2023-02-14T21:28:03.333Z,14.85
2023-02-14T21:32:08.828Z,21.25
2023-02-14T21:36:18.088Z,18.23
2023-02-14T21:40:26.330Z,18.40
2023-02-14T21:44:47.208Z,16.58
2023-02-14T21:49:07.408Z,16.77
2023-02-14T21:53:11.632Z,17.65
2023-02-14T21:57:14.750Z,16.65
2023-02-14T22:01:20.944Z,17.23
2023-02-14T22:05:24.247Z,17.40
2023-02-14T22:09:29.115Z,18.13
2023-02-14T22:13:32.163Z,17.50
2023-02-14T22:17:37.941Z,19.23
2023-02-14T22:21:40.985Z,18.30
2023-02-14T22:25:45.633Z,22.95
2023-02-14T22:29:48.551Z,15.73
2023-02-14T22:33:54.495Z,22.55
2023-02-14T22:37:59.816Z,18.15
2023-02-14T22:42:06.957Z,17.60
2023-02-14T22:46:12.460Z,19.80
2023-02-14T22:50:15.760Z,16.52
2023-02-14T22:54:18.809Z,16.02
2023-02-14T22:58:26.547Z,19.48
2023-02-14T23:02:30.205Z,18.20
2023-02-14T23:06:35.757Z,18.27
2023-02-14T23:10:38.991Z,16.88
2023-02-14T23:15:00.965Z,16.95
2023-02-14T23:19:21.583Z,16.55
2023-02-14T23:23:24.845Z,16.55
2023-02-14T23:31:37.105Z,17.75
2023-02-14T23:35:40.661Z,17.52
2023-02-14T23:39:45.039Z,16.45
2023-02-14T23:43:50.323Z,16.63
2023-02-14T23:47:54.999Z,17.85
2023-02-14T23:51:58.161Z,16.50
2023-02-14T23:56:06.106Z,17.58
